Time;durP1;ratioP1;P1;durP2;ratioP2;P2;SDS_P1;SDS_P2;PMS_P1;PMS_P2;Temp;Humidity;BMP_temperature;BMP_pressure;BME280_temperature;BME280_humidity;BME280_pressure;Samples;Min_cycle;Max_cycle;Signal;HPM_P1;HPM_P2
2023/09/26 00:01:12;;;;;;;;;;;16.30;99.90;;;;;;5117168;27;20259;-44
2023/09/26 00:03:39;;;;;;;;;;;16.30;99.90;;;;;;5118107;27;19911;-45
2023/09/26 00:06:17;;;;;;;;;;;16.30;99.90;;;;;;5124944;27;19908;-45
2023/09/26 00:08:43;;;;;;;;;;;16.30;99.90;;;;;;5127828;27;19907;-46
2023/09/26 00:11:08;;;;;;;;;;;16.30;99.90;;;;;;5125077;27;19935;-45
2023/09/26 00:13:34;;;;;;;;;;;16.30;99.90;;;;;;5127392;27;20269;-48
2023/09/26 00:15:59;;;;;;;;;;;16.20;99.90;;;;;;5135080;27;20366;-48
2023/09/26 00:18:25;;;;;;;;;;;16.20;99.90;;;;;;5115230;28;19908;-44
2023/09/26 00:20:50;;;;;;;;;;;16.20;99.90;;;;;;5114454;28;19926;-45
2023/09/26 00:23:16;;;;;;;;;;;16.20;99.90;;;;;;5114490;28;20327;-48
2023/09/26 00:25:41;;;;;;;;;;;16.20;99.90;;;;;;5114531;28;19908;-46
2023/09/26 00:28:07;;;;;;;;;;;16.20;99.90;;;;;;5115408;27;19920;-46
2023/09/26 00:30:32;;;;;;;;;;;16.20;99.90;;;;;;5125667;27;19907;-45
2023/09/26 00:32:58;;;;;;;;;;;16.20;99.90;;;;;;5132393;27;20006;-48
2023/09/26 00:35:23;;;;;;;;;;;16.20;99.90;;;;;;5145060;27;19915;-47
2023/09/26 00:37:50;;;;;;;;;;;16.20;99.90;;;;;;5134592;27;20270;-46
2023/09/26 00:40:19;;;;;;;;;;;16.20;99.90;;;;;;5134529;27;19968;-43
2023/09/26 00:42:45;;;;;;;;;;;16.20;99.90;;;;;;5146851;27;20281;-45
2023/09/26 00:45:11;;;;;;;;;;;16.20;99.90;;;;;;5134504;27;19911;-47
2023/09/26 00:47:40;;;;;;;;;;;16.30;99.90;;;;;;5144849;27;19976;-45
2023/09/26 00:50:12;;;;;;;;;;;16.20;99.90;;;;;;5155244;27;20407;-47
2023/09/26 00:52:39;;;;;;;;;;;16.20;99.90;;;;;;5155183;27;20357;-45
2023/09/26 00:55:05;;;;;;;;;;;16.20;99.90;;;;;;5146307;27;19911;-48
2023/09/26 00:57:31;;;;;;;;;;;16.20;99.90;;;;;;5149320;27;20010;-44
2023/09/26 00:59:57;;;;;;;;;;;16.10;99.90;;;;;;5146690;27;19920;-44
2023/09/26 01:02:23;;;;;;;;;;;16.20;99.90;;;;;;5149319;27;19914;-45
2023/09/26 01:04:49;;;;;;;;;;;16.10;99.90;;;;;;5155052;27;19907;-46
2023/09/26 01:07:14;;;;;;;;;;;16.10;99.90;;;;;;5134217;27;20267;-46
2023/09/26 01:09:40;;;;;;;;;;;16.10;99.90;;;;;;5140135;27;19912;-44
2023/09/26 01:12:05;;;;;;;;;;;16.00;99.90;;;;;;5134365;27;19911;-45
2023/09/26 01:14:31;;;;;;;;;;;16.00;99.90;;;;;;5134444;27;19918;-45
2023/09/26 01:16:57;;;;;;;;;;;16.00;99.90;;;;;;5136323;27;19912;-44
2023/09/26 01:19:22;;;;;;;;;;;15.90;99.90;;;;;;5154126;27;19926;-45
2023/09/26 01:21:48;;;;;;;;;;;15.90;99.90;;;;;;5144307;27;19965;-45
2023/09/26 01:24:15;;;;;;;;;;;15.80;99.90;;;;;;5146593;27;19911;-47
2023/09/26 01:26:41;;;;;;;;;;;15.90;99.90;;;;;;5133898;27;19911;-46
2023/09/26 01:29:07;;;;;;;;;;;15.80;99.90;;;;;;5143913;27;20247;-45
2023/09/26 01:31:35;;;;;;;;;;;15.80;99.90;;;;;;5154434;27;19907;-46
2023/09/26 01:34:02;;;;;;;;;;;15.70;99.90;;;;;;5154302;27;19923;-45
2023/09/26 01:36:28;;;;;;;;;;;15.60;99.90;;;;;;5151353;27;20365;-47
2023/09/26 01:38:54;;;;;;;;;;;15.60;99.90;;;;;;5143774;27;19915;-46
2023/09/26 01:41:23;;;;;;;;;;;15.60;99.90;;;;;;5154319;27;20346;-45
2023/09/26 01:43:49;;;;;;;;;;;15.50;99.90;;;;;;5151061;27;19907;-45
2023/09/26 01:46:15;;;;;;;;;;;15.40;99.90;;;;;;5151081;27;19911;-45
2023/09/26 01:48:40;;;;;;;;;;;15.40;99.90;;;;;;5161336;27;19950;-45
2023/09/26 01:51:06;;;;;;;;;;;15.30;99.90;;;;;;5148684;27;20357;-44
2023/09/26 01:53:31;;;;;;;;;;;15.20;99.90;;;;;;5140496;27;19914;-45
2023/09/26 01:56:00;;;;;;;;;;;15.20;99.90;;;;;;5140498;27;19914;-44
2023/09/26 01:58:26;;;;;;;;;;;15.20;99.90;;;;;;5140354;27;19914;-46
2023/09/26 02:00:51;;;;;;;;;;;15.20;99.90;;;;;;5152482;27;19919;-44
2023/09/26 02:03:17;;;;;;;;;;;15.10;99.90;;;;;;5128787;27;19907;-46
2023/09/26 02:05:42;;;;;;;;;;;15.10;99.90;;;;;;5137619;27;19943;-44
2023/09/26 02:08:08;;;;;;;;;;;15.00;99.90;;;;;;5161245;27;19907;-45
2023/09/26 02:10:34;;;;;;;;;;;15.00;99.90;;;;;;5150912;27;19915;-45
2023/09/26 02:12:59;;;;;;;;;;;15.00;99.90;;;;;;5157798;27;19914;-46
2023/09/26 02:15:25;;;;;;;;;;;15.00;99.90;;;;;;5160565;27;19911;-46
2023/09/26 02:17:51;;;;;;;;;;;14.90;99.90;;;;;;5145671;27;19916;-48
2023/09/26 02:20:18;;;;;;;;;;;14.90;99.90;;;;;;5151687;27;19960;-45
2023/09/26 02:22:47;;;;;;;;;;;14.90;99.90;;;;;;5140210;27;19914;-46
2023/09/26 02:25:13;;;;;;;;;;;14.90;99.90;;;;;;5144423;27;19997;-45
2023/09/26 02:27:39;;;;;;;;;;;14.80;99.90;;;;;;5147796;27;19935;-48
2023/09/26 02:30:05;;;;;;;;;;;14.80;99.90;;;;;;5140300;27;19958;-47
2023/09/26 02:32:31;;;;;;;;;;;14.80;99.90;;;;;;5159670;27;20009;-45
2023/09/26 02:34:57;;;;;;;;;;;14.80;99.90;;;;;;5159139;27;19915;-46
2023/09/26 02:37:22;;;;;;;;;;;14.80;99.90;;;;;;5137627;27;19914;-43
2023/09/26 02:39:48;;;;;;;;;;;14.80;99.90;;;;;;5160786;27;20354;-44
2023/09/26 02:42:15;;;;;;;;;;;14.80;99.90;;;;;;5144030;27;20404;-44
2023/09/26 02:44:41;;;;;;;;;;;14.80;99.90;;;;;;5140036;27;20361;-46
2023/09/26 02:47:06;;;;;;;;;;;14.70;99.90;;;;;;5140126;27;19914;-45
2023/09/26 02:49:32;;;;;;;;;;;14.70;99.90;;;;;;5139989;27;19907;-45
2023/09/26 02:51:57;;;;;;;;;;;14.60;99.90;;;;;;5142533;27;19954;-46
2023/09/26 02:54:22;;;;;;;;;;;14.60;99.90;;;;;;5159901;27;20006;-45
2023/09/26 02:56:48;;;;;;;;;;;14.50;99.90;;;;;;5155459;27;19919;-45
2023/09/26 02:59:13;;;;;;;;;;;14.40;99.90;;;;;;5157017;27;20277;-45
2023/09/26 03:01:39;;;;;;;;;;;14.40;99.90;;;;;;5149099;27;19918;-44
2023/09/26 03:04:05;;;;;;;;;;;14.30;99.90;;;;;;5152009;27;19967;-48
2023/09/26 03:06:30;;;;;;;;;;;14.20;99.90;;;;;;5136784;27;20374;-45
2023/09/26 03:08:56;;;;;;;;;;;14.20;99.90;;;;;;5136418;27;19957;-46
2023/09/26 03:11:21;;;;;;;;;;;14.10;99.90;;;;;;5136468;27;19907;-46
2023/09/26 03:13:47;;;;;;;;;;;14.00;99.90;;;;;;5143165;27;20254;-44
2023/09/26 03:16:14;;;;;;;;;;;14.00;99.90;;;;;;5157137;27;19907;-45
2023/09/26 03:18:40;;;;;;;;;;;13.90;99.90;;;;;;5145481;27;19912;-44
2023/09/26 03:21:06;;;;;;;;;;;13.80;99.90;;;;;;5154962;27;20048;-44
2023/09/26 03:23:32;;;;;;;;;;;13.80;99.90;;;;;;5152011;27;19948;-45
2023/09/26 03:25:57;;;;;;;;;;;13.70;99.90;;;;;;5136176;27;19908;-46
2023/09/26 03:28:23;;;;;;;;;;;13.70;99.90;;;;;;5142781;27;19918;-43
2023/09/26 03:30:48;;;;;;;;;;;13.70;99.90;;;;;;5141252;27;19911;-44
2023/09/26 03:33:14;;;;;;;;;;;13.60;99.90;;;;;;5135691;27;19926;-44
2023/09/26 03:35:39;;;;;;;;;;;13.70;99.90;;;;;;5135898;27;19990;-45
2023/09/26 03:38:05;;;;;;;;;;;13.60;99.90;;;;;;5141016;27;19958;-44
2023/09/26 03:40:31;;;;;;;;;;;13.60;99.90;;;;;;5142445;27;20262;-45
2023/09/26 03:42:56;;;;;;;;;;;13.50;99.90;;;;;;5142392;27;19907;-46
2023/09/26 03:45:22;;;;;;;;;;;13.40;99.90;;;;;;5142490;27;19911;-44
2023/09/26 03:47:48;;;;;;;;;;;13.40;99.90;;;;;;5156525;27;19907;-44
2023/09/26 03:50:13;;;;;;;;;;;13.40;99.90;;;;;;5156563;27;19915;-44
2023/09/26 03:52:39;;;;;;;;;;;13.30;99.90;;;;;;5153608;27;19916;-44
2023/09/26 03:55:04;;;;;;;;;;;13.30;99.90;;;;;;5145478;27;19911;-44
2023/09/26 03:57:31;;;;;;;;;;;13.30;99.90;;;;;;5154315;27;20283;-49
2023/09/26 03:59:56;;;;;;;;;;;13.30;99.90;;;;;;5144364;27;19930;-48
2023/09/26 04:02:22;;;;;;;;;;;13.30;99.90;;;;;;5156112;27;19907;-45
2023/09/26 04:04:47;;;;;;;;;;;13.30;99.90;;;;;;5140494;27;19982;-48
2023/09/26 04:07:13;;;;;;;;;;;13.30;99.90;;;;;;5135358;27;20328;-45
2023/09/26 04:09:38;;;;;;;;;;;13.30;99.90;;;;;;5134923;27;19914;-45
2023/09/26 04:12:04;;;;;;;;;;;13.30;99.90;;;;;;5147835;27;19999;-44
2023/09/26 04:14:30;;;;;;;;;;;13.30;99.90;;;;;;5129383;27;20409;-48
2023/09/26 04:16:56;;;;;;;;;;;13.30;99.90;;;;;;5114574;28;19907;-45
2023/09/26 04:19:22;;;;;;;;;;;13.30;99.90;;;;;;5136403;27;19967;-44
2023/09/26 04:21:47;;;;;;;;;;;13.30;99.90;;;;;;5155383;27;20274;-43
2023/09/26 04:24:13;;;;;;;;;;;13.30;99.90;;;;;;5145485;27;19915;-44
2023/09/26 04:26:38;;;;;;;;;;;13.30;99.90;;;;;;5134825;27;19969;-46
2023/09/26 04:29:05;;;;;;;;;;;13.30;99.90;;;;;;5140958;27;19915;-44
2023/09/26 04:31:30;;;;;;;;;;;13.20;99.90;;;;;;5155543;27;19964;-45
2023/09/26 04:33:56;;;;;;;;;;;13.20;99.90;;;;;;5145351;27;19923;-43
2023/09/26 04:36:22;;;;;;;;;;;13.20;99.90;;;;;;5115381;27;19912;-44
2023/09/26 04:38:47;;;;;;;;;;;13.20;99.90;;;;;;5114252;28;19915;-43
2023/09/26 04:41:13;;;;;;;;;;;13.20;99.90;;;;;;5114204;28;19912;-45
2023/09/26 04:43:38;;;;;;;;;;;13.20;99.90;;;;;;5114038;28;19916;-44
2023/09/26 04:46:13;;;;;;;;;;;13.20;99.90;;;;;;5123437;27;19907;-44
2023/09/26 04:48:39;;;;;;;;;;;13.20;99.90;;;;;;5134568;27;19908;-44
2023/09/26 04:51:08;;;;;;;;;;;13.20;99.90;;;;;;5134377;27;19919;-45
2023/09/26 04:53:35;;;;;;;;;;;13.20;99.90;;;;;;5134379;27;19912;-48
2023/09/26 04:56:03;;;;;;;;;;;13.20;99.90;;;;;;5134344;27;20366;-43
2023/09/26 04:58:30;;;;;;;;;;;13.20;99.90;;;;;;5134267;27;19907;-45
2023/09/26 05:00:56;;;;;;;;;;;13.20;99.90;;;;;;5134288;27;19938;-44
2023/09/26 05:03:22;;;;;;;;;;;13.20;99.90;;;;;;5134158;27;20358;-44
2023/09/26 05:05:47;;;;;;;;;;;13.10;99.90;;;;;;5134194;27;19908;-45
2023/09/26 05:08:13;;;;;;;;;;;13.10;99.90;;;;;;5131669;27;19912;-45
2023/09/26 05:10:38;;;;;;;;;;;13.10;99.90;;;;;;5113571;28;19954;-46
2023/09/26 05:13:05;;;;;;;;;;;13.00;99.90;;;;;;5127552;27;19911;-47
2023/09/26 05:15:32;;;;;;;;;;;13.00;99.90;;;;;;5142968;27;19911;-45
2023/09/26 05:17:58;;;;;;;;;;;13.00;99.90;;;;;;5133735;27;19933;-47
2023/09/26 05:20:24;;;;;;;;;;;13.00;99.90;;;;;;5145254;27;19930;-46
2023/09/26 05:22:49;;;;;;;;;;;13.00;99.90;;;;;;5134076;27;19958;-45
2023/09/26 05:25:15;;;;;;;;;;;13.00;99.90;;;;;;5142419;27;20392;-47
2023/09/26 05:27:42;;;;;;;;;;;13.00;99.90;;;;;;5154553;27;19997;-47
2023/09/26 05:30:09;;;;;;;;;;;13.00;99.90;;;;;;5154617;27;19914;-44
2023/09/26 05:32:34;;;;;;;;;;;13.00;99.90;;;;;;5154167;27;19907;-46
2023/09/26 05:35:00;;;;;;;;;;;13.00;99.90;;;;;;5154623;27;19964;-45
2023/09/26 05:37:26;;;;;;;;;;;13.00;99.90;;;;;;5145637;27;20013;-45
2023/09/26 05:39:51;;;;;;;;;;;13.00;99.90;;;;;;5135461;27;19923;-45
2023/09/26 05:42:17;;;;;;;;;;;13.00;99.90;;;;;;5131593;27;19918;-45
2023/09/26 05:44:42;;;;;;;;;;;13.00;99.90;;;;;;5146087;27;19954;-44
2023/09/26 05:47:08;;;;;;;;;;;13.00;99.90;;;;;;5141878;27;19964;-44
2023/09/26 05:49:33;;;;;;;;;;;13.00;99.90;;;;;;5146080;27;19929;-45
2023/09/26 05:51:59;;;;;;;;;;;13.00;99.90;;;;;;5131093;28;19907;-47
2023/09/26 05:54:24;;;;;;;;;;;13.00;99.90;;;;;;5121675;28;19907;-48
2023/09/26 05:56:50;;;;;;;;;;;13.00;99.90;;;;;;5133668;28;19961;-44
2023/09/26 05:59:15;;;;;;;;;;;13.00;99.90;;;;;;5133494;28;19920;-48
2023/09/26 06:01:41;;;;;;;;;;;13.00;99.90;;;;;;5133537;28;19907;-46
2023/09/26 06:04:06;;;;;;;;;;;13.00;99.90;;;;;;5135850;27;20402;-48
2023/09/26 06:06:35;;;;;;;;;;;13.10;99.90;;;;;;5141820;27;19912;-45
2023/09/26 06:09:00;;;;;;;;;;;13.00;99.90;;;;;;5143106;27;20366;-44
2023/09/26 06:11:25;;;;;;;;;;;13.10;99.90;;;;;;5143555;27;19929;-45
2023/09/26 06:13:54;;;;;;;;;;;13.10;99.90;;;;;;5133835;27;19915;-45
2023/09/26 06:16:19;;;;;;;;;;;13.10;99.90;;;;;;5143306;27;19914;-44
2023/09/26 06:18:47;;;;;;;;;;;13.20;99.90;;;;;;5143248;27;19915;-45
2023/09/26 06:21:14;;;;;;;;;;;13.20;99.90;;;;;;5144498;27;20009;-47
2023/09/26 06:23:40;;;;;;;;;;;13.30;99.90;;;;;;5141154;27;19911;-45
2023/09/26 06:26:06;;;;;;;;;;;13.30;99.90;;;;;;5143312;27;20066;-46
2023/09/26 06:28:32;;;;;;;;;;;13.40;99.90;;;;;;5143256;27;19975;-46
2023/09/26 06:31:03;;;;;;;;;;;13.40;99.90;;;;;;5141933;27;19908;-44
2023/09/26 06:33:29;;;;;;;;;;;13.50;99.90;;;;;;5145104;27;19927;-46
2023/09/26 06:35:54;;;;;;;;;;;13.50;99.90;;;;;;5147531;27;20422;-43
2023/09/26 06:38:20;;;;;;;;;;;13.60;99.90;;;;;;5146034;27;20013;-43
2023/09/26 06:40:45;;;;;;;;;;;13.60;99.90;;;;;;5147117;27;19915;-47
2023/09/26 06:43:10;;;;;;;;;;;13.60;99.90;;;;;;5140553;27;20375;-45
2023/09/26 06:45:38;;;;;;;;;;;13.60;99.90;;;;;;5146214;27;19959;-46
2023/09/26 06:48:03;;;;;;;;;;;13.70;99.90;;;;;;5141871;27;19935;-46
2023/09/26 06:50:29;;;;;;;;;;;13.70;99.90;;;;;;5139855;27;20265;-44
2023/09/26 06:52:54;;;;;;;;;;;13.80;99.90;;;;;;5143062;27;19953;-45
2023/09/26 06:55:20;;;;;;;;;;;13.80;99.90;;;;;;5155039;27;19911;-45
2023/09/26 06:57:45;;;;;;;;;;;13.90;99.90;;;;;;5150958;27;19918;-45
2023/09/26 07:00:16;;;;;;;;;;;13.90;99.90;;;;;;5149625;27;19927;-44
2023/09/26 07:02:46;;;;;;;;;;;14.00;99.90;;;;;;5142155;27;20261;-45
2023/09/26 07:05:12;;;;;;;;;;;14.00;99.90;;;;;;5136395;27;19917;-45
2023/09/26 07:07:38;;;;;;;;;;;14.10;99.90;;;;;;5136450;27;19908;-46
2023/09/26 07:10:05;;;;;;;;;;;14.10;99.90;;;;;;5136599;27;19912;-45
2023/09/26 07:12:30;;;;;;;;;;;14.10;99.90;;;;;;5136313;27;19908;-46
2023/09/26 07:14:56;;;;;;;;;;;14.20;99.90;;;;;;5123976;27;20018;-46
2023/09/26 07:17:22;;;;;;;;;;;14.30;99.90;;;;;;5133358;27;20270;-46
2023/09/26 07:19:49;;;;;;;;;;;14.30;99.90;;;;;;5126789;27;19919;-45
2023/09/26 07:22:14;;;;;;;;;;;14.40;99.90;;;;;;5136289;27;19911;-46
2023/09/26 07:24:40;;;;;;;;;;;14.40;99.90;;;;;;5135577;27;20319;-46
2023/09/26 07:27:06;;;;;;;;;;;14.40;99.90;;;;;;5128730;27;19955;-47
2023/09/26 07:29:32;;;;;;;;;;;14.50;99.90;;;;;;5128710;27;19973;-46
2023/09/26 07:31:57;;;;;;;;;;;14.50;99.90;;;;;;5135659;27;20259;-47
2023/09/26 07:34:22;;;;;;;;;;;14.60;99.90;;;;;;5133593;27;19965;-45
2023/09/26 07:36:48;;;;;;;;;;;14.70;99.90;;;;;;5135675;27;19907;-47
2023/09/26 07:39:16;;;;;;;;;;;14.70;99.90;;;;;;5135502;27;19990;-47
2023/09/26 07:41:41;;;;;;;;;;;14.70;99.90;;;;;;5134336;27;19908;-49
2023/09/26 07:44:07;;;;;;;;;;;14.80;99.90;;;;;;5134590;27;19918;-45
2023/09/26 07:46:32;;;;;;;;;;;14.90;99.90;;;;;;5135491;27;19907;-44
2023/09/26 07:48:58;;;;;;;;;;;14.90;99.90;;;;;;5135414;27;20286;-44
2023/09/26 07:51:23;;;;;;;;;;;15.00;99.90;;;;;;5146442;27;19911;-46
2023/09/26 07:53:48;;;;;;;;;;;15.10;99.90;;;;;;5155749;27;19907;-49
2023/09/26 07:56:14;;;;;;;;;;;15.20;99.90;;;;;;5135302;27;20279;-48
2023/09/26 07:58:39;;;;;;;;;;;15.20;99.90;;;;;;5136985;27;19965;-46
2023/09/26 08:01:09;;;;;;;;;;;15.30;99.90;;;;;;5136138;27;19973;-45
2023/09/26 08:03:38;;;;;;;;;;;15.30;99.90;;;;;;5134838;27;20250;-49
2023/09/26 08:06:04;;;;;;;;;;;15.50;99.90;;;;;;5134653;27;19911;-46
2023/09/26 08:08:30;;;;;;;;;;;15.60;99.90;;;;;;5134811;27;20338;-45
2023/09/26 08:10:59;;;;;;;;;;;15.70;99.90;;;;;;5134805;27;19998;-47
2023/09/26 08:13:24;;;;;;;;;;;15.80;99.90;;;;;;5134541;27;19907;-45
2023/09/26 08:15:50;;;;;;;;;;;15.90;99.90;;;;;;5134890;27;19911;-46
2023/09/26 08:18:15;;;;;;;;;;;15.90;99.90;;;;;;5130539;27;19915;-48
2023/09/26 08:20:41;;;;;;;;;;;16.00;99.90;;;;;;5134539;27;19930;-46
2023/09/26 08:23:06;;;;;;;;;;;16.10;99.90;;;;;;5135076;27;19907;-46
2023/09/26 08:25:34;;;;;;;;;;;16.20;99.90;;;;;;5134632;27;19916;-45
2023/09/26 08:27:59;;;;;;;;;;;16.30;99.90;;;;;;5134185;27;19908;-45
2023/09/26 08:30:27;;;;;;;;;;;16.40;99.90;;;;;;5134285;27;20017;-45
2023/09/26 08:32:52;;;;;;;;;;;16.40;99.90;;;;;;5134145;27;20365;-46
2023/09/26 08:35:18;;;;;;;;;;;16.50;99.90;;;;;;5134908;27;19907;-46
2023/09/26 08:37:43;;;;;;;;;;;16.60;99.90;;;;;;5131320;27;20430;-45
2023/09/26 08:40:12;;;;;;;;;;;16.70;99.90;;;;;;5133887;27;19986;-45
2023/09/26 08:42:39;;;;;;;;;;;16.80;99.90;;;;;;5133665;27;19907;-45
2023/09/26 08:45:05;;;;;;;;;;;16.80;99.90;;;;;;5138074;27;19911;-47
2023/09/26 08:47:33;;;;;;;;;;;17.00;99.90;;;;;;5115066;28;19915;-44
2023/09/26 08:49:58;;;;;;;;;;;17.00;99.90;;;;;;5134168;27;19941;-44
2023/09/26 08:52:24;;;;;;;;;;;17.10;99.90;;;;;;5133638;27;19943;-44
2023/09/26 08:54:50;;;;;;;;;;;17.20;99.90;;;;;;5132696;27;20447;-47
2023/09/26 08:57:19;;;;;;;;;;;17.20;99.90;;;;;;5133791;27;20362;-46
2023/09/26 08:59:48;;;;;;;;;;;17.30;99.90;;;;;;5144575;27;19919;-46
2023/09/26 09:02:14;;;;;;;;;;;17.30;99.90;;;;;;5147974;27;19911;-45
2023/09/26 09:04:43;;;;;;;;;;;17.40;99.90;;;;;;5142256;27;20293;-45
2023/09/26 09:07:10;;;;;;;;;;;17.40;99.90;;;;;;5137867;27;20343;-46
2023/09/26 09:09:35;;;;;;;;;;;17.50;99.90;;;;;;5134010;27;19907;-48
2023/09/26 09:12:02;;;;;;;;;;;17.50;99.90;;;;;;5134105;27;19915;-45
2023/09/26 09:14:34;;;;;;;;;;;17.50;99.90;;;;;;5134011;27;19907;-44
2023/09/26 09:17:00;;;;;;;;;;;17.50;99.90;;;;;;5134178;27;19908;-48
2023/09/26 09:19:45;;;;;;;;;;;17.60;99.90;;;;;;5142947;27;19926;-45
2023/09/26 09:22:17;;;;;;;;;;;17.60;99.90;;;;;;5152545;27;19907;-46
2023/09/26 09:24:43;;;;;;;;;;;17.70;99.90;;;;;;5132285;27;19923;-46
2023/09/26 09:27:09;;;;;;;;;;;17.80;99.90;;;;;;5134736;27;19907;-46
2023/09/26 09:29:35;;;;;;;;;;;18.00;99.90;;;;;;5134339;27;19907;-45
2023/09/26 09:32:01;;;;;;;;;;;18.10;99.90;;;;;;5119408;27;19919;-48
2023/09/26 09:34:27;;;;;;;;;;;18.20;99.90;;;;;;5106482;27;19920;-45
2023/09/26 09:36:58;;;;;;;;;;;18.40;99.90;;;;;;5107412;27;19915;-48
2023/09/26 09:39:24;;;;;;;;;;;18.50;99.90;;;;;;5108114;28;19916;-46
2023/09/26 09:41:50;;;;;;;;;;;18.60;99.90;;;;;;5112305;28;19916;-45
2023/09/26 09:44:16;;;;;;;;;;;18.90;99.90;;;;;;5099958;28;19923;-46
2023/09/26 09:46:43;;;;;;;;;;;19.00;99.90;;;;;;5092154;28;20359;-45
2023/09/26 09:49:12;;;;;;;;;;;19.10;99.90;;;;;;5092220;28;19908;-45
2023/09/26 09:51:45;;;;;;;;;;;19.10;99.90;;;;;;5119413;28;19933;-45
2023/09/26 09:54:17;;;;;;;;;;;19.20;99.90;;;;;;5106334;28;19951;-44
2023/09/26 09:56:45;;;;;;;;;;;19.30;99.90;;;;;;5125600;28;19911;-46
2023/09/26 09:59:12;;;;;;;;;;;19.30;99.90;;;;;;5132768;28;19907;-49
2023/09/26 10:01:42;;;;;;;;;;;19.30;99.90;;;;;;5104867;28;19981;-45
2023/09/26 10:04:08;;;;;;;;;;;19.30;99.90;;;;;;5109610;28;19962;-45
2023/09/26 10:06:34;;;;;;;;;;;19.30;99.90;;;;;;5109871;28;19912;-46
2023/09/26 10:08:59;;;;;;;;;;;19.40;99.90;;;;;;5117965;28;19915;-45
2023/09/26 10:11:26;;;;;;;;;;;19.40;99.90;;;;;;5130118;27;19911;-46
2023/09/26 10:13:51;;;;;;;;;;;19.50;99.90;;;;;;5125191;27;19947;-45
2023/09/26 10:16:20;;;;;;;;;;;19.60;99.90;;;;;;5107938;28;19951;-46
2023/09/26 10:18:47;;;;;;;;;;;19.80;99.90;;;;;;5116478;28;19907;-45
2023/09/26 10:21:28;;;;;;;;;;;19.90;99.90;;;;;;5117613;28;20030;-44
2023/09/26 10:24:09;;;;;;;;;;;19.90;99.90;;;;;;5117650;28;19961;-45
2023/09/26 10:26:37;;;;;;;;;;;19.90;99.90;;;;;;5119813;27;19915;-46
2023/09/26 10:29:05;;;;;;;;;;;20.00;99.90;;;;;;5136292;27;19915;-46
2023/09/26 10:31:32;;;;;;;;;;;20.00;99.90;;;;;;5135910;27;19912;-47
2023/09/26 10:33:57;;;;;;;;;;;20.10;99.90;;;;;;5145436;27;19930;-46
2023/09/26 10:36:23;;;;;;;;;;;20.10;99.90;;;;;;5148487;27;19907;-45
2023/09/26 10:39:03;;;;;;;;;;;20.30;99.90;;;;;;5137348;27;19912;-46
2023/09/26 10:41:30;;;;;;;;;;;20.30;99.90;;;;;;5137797;27;19923;-45
2023/09/26 10:43:56;;;;;;;;;;;20.30;99.90;;;;;;5137674;27;19907;-45
2023/09/26 10:46:21;;;;;;;;;;;20.40;99.90;;;;;;5138665;27;19912;-45
2023/09/26 10:48:47;;;;;;;;;;;20.30;99.90;;;;;;5137726;27;20255;-45
2023/09/26 10:51:14;;;;;;;;;;;20.30;99.90;;;;;;5138262;27;19911;-45
2023/09/26 10:53:40;;;;;;;;;;;20.40;99.90;;;;;;5133170;27;19998;-46
2023/09/26 10:56:07;;;;;;;;;;;20.40;99.90;;;;;;5137495;27;19998;-45
2023/09/26 10:58:33;;;;;;;;;;;20.40;99.90;;;;;;5137845;27;19911;-46
2023/09/26 11:00:58;;;;;;;;;;;20.50;99.90;;;;;;5157613;27;19926;-46
2023/09/26 11:03:24;;;;;;;;;;;20.50;99.90;;;;;;5141971;27;19922;-45
2023/09/26 11:05:50;;;;;;;;;;;20.50;99.90;;;;;;5134462;27;19918;-44
2023/09/26 11:08:16;;;;;;;;;;;20.50;99.90;;;;;;5126786;27;19998;-45
2023/09/26 11:10:47;;;;;;;;;;;20.50;99.90;;;;;;5133947;27;20086;-46
2023/09/26 11:13:13;;;;;;;;;;;20.50;99.90;;;;;;5129796;27;19912;-48
2023/09/26 11:15:39;;;;;;;;;;;20.60;99.90;;;;;;5135542;27;19963;-46
2023/09/26 11:18:06;;;;;;;;;;;20.60;99.90;;;;;;5127150;27;19912;-44
2023/09/26 11:20:31;;;;;;;;;;;20.70;99.90;;;;;;5128567;27;19920;-46
2023/09/26 11:22:57;;;;;;;;;;;20.70;99.90;;;;;;5129719;27;19915;-46
2023/09/26 11:25:22;;;;;;;;;;;20.70;99.90;;;;;;5133613;27;19916;-46
2023/09/26 11:27:48;;;;;;;;;;;20.80;99.90;;;;;;5124276;27;19912;-47
2023/09/26 11:30:17;;;;;;;;;;;20.80;99.90;;;;;;5134159;27;19953;-46
2023/09/26 11:32:46;;;;;;;;;;;20.80;99.90;;;;;;5137559;27;19919;-46
2023/09/26 11:35:13;;;;;;;;;;;20.80;99.90;;;;;;5135895;27;19933;-45
2023/09/26 11:37:38;;;;;;;;;;;20.80;99.90;;;;;;5140334;27;19925;-49
2023/09/26 11:40:11;;;;;;;;;;;20.80;99.90;;;;;;5156332;27;20349;-45
2023/09/26 11:42:46;;;;;;;;;;;20.80;99.90;;;;;;5148635;27;19911;-46
2023/09/26 11:45:21;;;;;;;;;;;20.70;99.90;;;;;;5143521;27;19915;-45
2023/09/26 11:47:47;;;;;;;;;;;20.70;99.90;;;;;;5131024;27;19957;-45
2023/09/26 11:50:12;;;;;;;;;;;20.70;99.90;;;;;;5123035;27;19955;-47
2023/09/26 11:52:39;;;;;;;;;;;20.70;99.90;;;;;;5115628;28;19908;-46
2023/09/26 11:55:06;;;;;;;;;;;20.70;99.90;;;;;;5124226;27;19934;-46
2023/09/26 11:57:33;;;;;;;;;;;20.70;99.90;;;;;;5134846;27;19946;-44
2023/09/26 11:59:59;;;;;;;;;;;20.80;99.90;;;;;;5135750;27;20438;-46
2023/09/26 12:02:25;;;;;;;;;;;20.70;99.90;;;;;;5134449;27;19951;-45
2023/09/26 12:04:50;;;;;;;;;;;20.80;99.90;;;;;;5125298;27;20378;-44
2023/09/26 12:07:16;;;;;;;;;;;20.80;99.90;;;;;;5115279;28;19912;-45
2023/09/26 12:09:44;;;;;;;;;;;20.80;99.90;;;;;;5119869;27;19911;-46
2023/09/26 12:12:09;;;;;;;;;;;20.80;99.90;;;;;;5135858;27;19908;-44
2023/09/26 12:14:35;;;;;;;;;;;20.80;99.90;;;;;;5135398;27;19935;-48
2023/09/26 12:17:01;;;;;;;;;;;20.90;99.90;;;;;;5136022;27;20000;-44
2023/09/26 12:19:27;;;;;;;;;;;20.90;99.90;;;;;;5135329;27;20265;-44
2023/09/26 12:21:53;;;;;;;;;;;21.00;99.90;;;;;;5135622;27;19911;-45
2023/09/26 12:24:18;;;;;;;;;;;21.10;99.90;;;;;;5135270;27;20006;-44
2023/09/26 12:26:47;;;;;;;;;;;21.20;99.90;;;;;;5135570;27;19914;-44
2023/09/26 12:29:13;;;;;;;;;;;21.20;99.90;;;;;;5134794;27;19911;-46
2023/09/26 12:31:38;;;;;;;;;;;21.20;99.90;;;;;;5135972;27;19923;-45
2023/09/26 12:34:04;;;;;;;;;;;21.30;99.90;;;;;;5119922;27;20012;-45
2023/09/26 12:36:30;;;;;;;;;;;21.30;99.90;;;;;;5114650;28;20365;-44
2023/09/26 12:38:55;;;;;;;;;;;21.40;99.90;;;;;;5114663;28;19908;-45
2023/09/26 12:41:21;;;;;;;;;;;21.40;99.90;;;;;;5113930;28;19920;-45
2023/09/26 12:43:46;;;;;;;;;;;21.40;99.90;;;;;;5114109;28;19943;-45
2023/09/26 12:46:12;;;;;;;;;;;21.50;99.90;;;;;;5114185;28;19916;-45
2023/09/26 12:48:37;;;;;;;;;;;21.60;99.90;;;;;;5113844;27;19920;-45
2023/09/26 12:51:03;;;;;;;;;;;21.60;99.90;;;;;;5113621;28;19969;-46
2023/09/26 12:53:28;;;;;;;;;;;21.60;99.90;;;;;;5114140;28;19908;-45
2023/09/26 12:55:54;;;;;;;;;;;21.70;99.90;;;;;;5113977;28;19912;-45
2023/09/26 12:58:20;;;;;;;;;;;21.70;99.90;;;;;;5113936;28;20487;-46
2023/09/26 13:00:46;;;;;;;;;;;21.70;99.90;;;;;;5114426;28;20010;-45
2023/09/26 13:03:11;;;;;;;;;;;21.70;99.90;;;;;;5114469;28;19914;-44
2023/09/26 13:05:37;;;;;;;;;;;21.70;99.90;;;;;;5113810;28;19919;-45
2023/09/26 13:08:04;;;;;;;;;;;21.70;99.90;;;;;;5114375;28;19955;-44
2023/09/26 13:10:31;;;;;;;;;;;21.70;99.90;;;;;;5114279;28;20366;-47
2023/09/26 13:12:56;;;;;;;;;;;21.80;99.90;;;;;;5111499;28;19964;-46
2023/09/26 13:15:22;;;;;;;;;;;21.80;99.90;;;;;;5111671;28;19912;-45
2023/09/26 13:17:47;;;;;;;;;;;21.90;99.90;;;;;;5113101;27;19908;-44
2023/09/26 13:20:13;;;;;;;;;;;22.00;99.90;;;;;;5107369;27;19927;-44
2023/09/26 13:22:39;;;;;;;;;;;22.30;99.90;;;;;;5092802;28;19908;-45
2023/09/26 13:25:05;;;;;;;;;;;22.90;99.90;;;;;;5100867;28;19911;-46
2023/09/26 13:27:31;;;;;;;;;;;23.30;99.90;;;;;;5093154;28;20404;-44
2023/09/26 13:29:56;;;;;;;;;;;23.80;99.90;;;;;;5102194;28;19912;-46
2023/09/26 13:32:24;;;;;;;;;;;24.20;99.90;;;;;;5110278;28;19981;-46
2023/09/26 13:34:49;;;;;;;;;;;24.50;99.90;;;;;;5088245;28;19908;-45
2023/09/26 13:37:15;;;;;;;;;;;24.80;99.90;;;;;;5093047;28;20366;-47
2023/09/26 13:39:41;;;;;;;;;;;24.90;99.90;;;;;;5102445;28;19916;-45
2023/09/26 13:42:07;;;;;;;;;;;25.20;99.90;;;;;;5112991;28;19907;-45
2023/09/26 13:44:33;;;;;;;;;;;25.60;99.90;;;;;;5113962;28;19908;-45
2023/09/26 13:46:59;;;;;;;;;;;25.70;99.90;;;;;;5113829;28;20002;-47
2023/09/26 13:49:24;;;;;;;;;;;25.80;99.90;;;;;;5120841;28;19958;-44
2023/09/26 13:51:52;;;;;;;;;;;26.00;99.90;;;;;;5113749;28;20367;-44
2023/09/26 13:54:17;;;;;;;;;;;25.80;99.90;;;;;;5111120;28;19912;-45
2023/09/26 13:56:43;;;;;;;;;;;25.80;99.90;;;;;;5098017;28;20377;-44
2023/09/26 13:59:08;;;;;;;;;;;25.90;99.90;;;;;;5092383;28;19912;-44
2023/09/26 14:01:34;;;;;;;;;;;26.10;99.90;;;;;;5104958;28;19923;-45
2023/09/26 14:04:00;;;;;;;;;;;26.30;99.90;;;;;;5102064;28;19912;-44
2023/09/26 14:06:25;;;;;;;;;;;26.40;99.90;;;;;;5093402;28;19991;-45
2023/09/26 14:08:51;;;;;;;;;;;26.30;99.90;;;;;;5101494;28;19939;-46
2023/09/26 14:11:17;;;;;;;;;;;26.10;99.90;;;;;;5108472;28;19973;-46